sensor_id;sensor_type;location;lat;lon;timestamp;P1;durP1;ratioP1;P2;durP2;ratioP2
50213;SDS011;36103;54.176;12.070;2022-10-17T00:00:58;2.67;;;1.93;;
50213;SDS011;36103;54.176;12.070;2022-10-17T00:02:00;4.27;;;2.27;;
50213;SDS011;36103;54.176;12.070;2022-10-17T00:03:00;3.17;;;2.03;;
50213;SDS011;36103;54.176;12.070;2022-10-17T00:04:02;2.43;;;1.87;;
50213;SDS011;36103;54.176;12.070;2022-10-17T00:05:03;5.53;;;2.37;;
50213;SDS011;36103;54.176;12.070;2022-10-17T00:06:07;3.77;;;2.10;;
50213;SDS011;36103;54.176;12.070;2022-10-17T00:07:09;2.20;;;1.80;;
50213;SDS011;36103;54.176;12.070;2022-10-17T00:08:10;2.30;;;1.90;;
50213;SDS011;36103;54.176;12.070;2022-10-17T00:09:12;4.43;;;2.20;;
50213;SDS011;36103;54.176;12.070;2022-10-17T00:10:13;3.60;;;1.80;;
50213;SDS011;36103;54.176;12.070;2022-10-17T00:11:15;2.33;;;1.77;;
50213;SDS011;36103;54.176;12.070;2022-10-17T00:12:18;3.37;;;1.63;;
50213;SDS011;36103;54.176;12.070;2022-10-17T00:13:18;4.17;;;2.23;;
50213;SDS011;36103;54.176;12.070;2022-10-17T00:14:20;3.17;;;1.60;;
50213;SDS011;36103;54.176;12.070;2022-10-17T00:15:20;3.27;;;1.80;;
50213;SDS011;36103;54.176;12.070;2022-10-17T00:16:23;2.90;;;1.57;;
50213;SDS011;36103;54.176;12.070;2022-10-17T00:17:23;2.63;;;2.00;;
50213;SDS011;36103;54.176;12.070;2022-10-17T00:18:25;2.70;;;1.97;;
50213;SDS011;36103;54.176;12.070;2022-10-17T00:19:26;2.83;;;1.83;;
50213;SDS011;36103;54.176;12.070;2022-10-17T00:20:27;2.67;;;2.10;;
50213;SDS011;36103;54.176;12.070;2022-10-17T00:21:30;2.37;;;1.60;;
50213;SDS011;36103;54.176;12.070;2022-10-17T00:22:32;2.77;;;2.00;;
50213;SDS011;36103;54.176;12.070;2022-10-17T00:23:33;2.03;;;1.63;;
50213;SDS011;36103;54.176;12.070;2022-10-17T00:24:34;2.07;;;1.77;;
50213;SDS011;36103;54.176;12.070;2022-10-17T00:25:34;4.30;;;2.10;;
50213;SDS011;36103;54.176;12.070;2022-10-17T00:26:36;3.80;;;1.90;;
50213;SDS011;36103;54.176;12.070;2022-10-17T00:27:37;2.57;;;1.67;;
50213;SDS011;36103;54.176;12.070;2022-10-17T00:28:39;2.20;;;1.80;;
50213;SDS011;36103;54.176;12.070;2022-10-17T00:29:39;3.90;;;1.87;;
50213;SDS011;36103;54.176;12.070;2022-10-17T00:30:41;3.67;;;1.90;;
50213;SDS011;36103;54.176;12.070;2022-10-17T00:31:41;4.37;;;1.93;;
50213;SDS011;36103;54.176;12.070;2022-10-17T00:32:43;2.97;;;1.80;;
50213;SDS011;36103;54.176;12.070;2022-10-17T00:33:44;2.33;;;1.83;;
50213;SDS011;36103;54.176;12.070;2022-10-17T00:34:45;2.90;;;1.97;;
50213;SDS011;36103;54.176;12.070;2022-10-17T00:35:46;2.43;;;1.87;;
50213;SDS011;36103;54.176;12.070;2022-10-17T00:36:49;1.80;;;1.43;;
50213;SDS011;36103;54.176;12.070;2022-10-17T00:37:49;2.00;;;1.73;;
50213;SDS011;36103;54.176;12.070;2022-10-17T00:38:52;4.90;;;1.93;;
50213;SDS011;36103;54.176;12.070;2022-10-17T00:39:54;2.27;;;1.70;;
50213;SDS011;36103;54.176;12.070;2022-10-17T00:40:56;2.77;;;1.50;;
50213;SDS011;36103;54.176;12.070;2022-10-17T00:41:56;2.40;;;1.60;;
50213;SDS011;36103;54.176;12.070;2022-10-17T00:42:57;2.50;;;1.70;;
50213;SDS011;36103;54.176;12.070;2022-10-17T00:43:59;3.87;;;1.87;;
50213;SDS011;36103;54.176;12.070;2022-10-17T00:45:09;2.63;;;1.60;;
50213;SDS011;36103;54.176;12.070;2022-10-17T00:46:15;3.10;;;2.17;;
50213;SDS011;36103;54.176;12.070;2022-10-17T00:47:18;2.80;;;2.20;;
50213;SDS011;36103;54.176;12.070;2022-10-17T00:48:20;2.30;;;1.63;;
50213;SDS011;36103;54.176;12.070;2022-10-17T00:49:22;3.17;;;2.07;;
50213;SDS011;36103;54.176;12.070;2022-10-17T00:50:24;2.63;;;1.70;;
50213;SDS011;36103;54.176;12.070;2022-10-17T00:51:26;3.47;;;2.00;;
50213;SDS011;36103;54.176;12.070;2022-10-17T00:52:33;2.20;;;1.73;;
50213;SDS011;36103;54.176;12.070;2022-10-17T00:53:36;2.43;;;1.80;;
50213;SDS011;36103;54.176;12.070;2022-10-17T00:54:39;2.33;;;1.73;;
50213;SDS011;36103;54.176;12.070;2022-10-17T00:55:44;2.30;;;1.60;;
50213;SDS011;36103;54.176;12.070;2022-10-17T00:56:46;2.90;;;1.83;;
50213;SDS011;36103;54.176;12.070;2022-10-17T00:57:48;4.23;;;1.67;;
50213;SDS011;36103;54.176;12.070;2022-10-17T00:58:49;2.60;;;1.70;;
50213;SDS011;36103;54.176;12.070;2022-10-17T00:59:51;2.13;;;1.60;;
50213;SDS011;36103;54.176;12.070;2022-10-17T01:00:53;3.87;;;1.90;;
50213;SDS011;36103;54.176;12.070;2022-10-17T01:01:55;2.30;;;1.50;;
50213;SDS011;36103;54.176;12.070;2022-10-17T01:03:00;2.37;;;1.80;;
50213;SDS011;36103;54.176;12.070;2022-10-17T01:04:01;2.20;;;1.73;;
50213;SDS011;36103;54.176;12.070;2022-10-17T01:05:02;2.23;;;1.70;;
50213;SDS011;36103;54.176;12.070;2022-10-17T01:06:03;1.63;;;1.50;;
50213;SDS011;36103;54.176;12.070;2022-10-17T01:07:04;2.93;;;1.77;;
50213;SDS011;36103;54.176;12.070;2022-10-17T01:08:07;3.00;;;1.67;;
50213;SDS011;36103;54.176;12.070;2022-10-17T01:09:08;2.10;;;1.67;;
50213;SDS011;36103;54.176;12.070;2022-10-17T01:10:09;2.83;;;1.60;;
50213;SDS011;36103;54.176;12.070;2022-10-17T01:11:12;2.37;;;1.63;;
50213;SDS011;36103;54.176;12.070;2022-10-17T01:12:21;2.87;;;1.90;;
50213;SDS011;36103;54.176;12.070;2022-10-17T01:13:24;2.07;;;1.50;;
50213;SDS011;36103;54.176;12.070;2022-10-17T01:14:28;2.80;;;1.83;;
50213;SDS011;36103;54.176;12.070;2022-10-17T01:15:34;2.50;;;1.70;;
50213;SDS011;36103;54.176;12.070;2022-10-17T01:16:42;3.23;;;1.70;;
50213;SDS011;36103;54.176;12.070;2022-10-17T01:17:49;2.07;;;1.40;;
50213;SDS011;36103;54.176;12.070;2022-10-17T01:18:58;3.73;;;1.67;;
50213;SDS011;36103;54.176;12.070;2022-10-17T01:20:14;2.20;;;1.60;;
50213;SDS011;36103;54.176;12.070;2022-10-17T01:21:39;2.87;;;1.73;;
50213;SDS011;36103;54.176;12.070;2022-10-17T01:22:48;2.70;;;1.90;;
50213;SDS011;36103;54.176;12.070;2022-10-17T01:24:05;1.80;;;1.50;;
50213;SDS011;36103;54.176;12.070;2022-10-17T01:25:32;2.73;;;1.63;;
50213;SDS011;36103;54.176;12.070;2022-10-17T01:26:51;2.27;;;1.57;;
50213;SDS011;36103;54.176;12.070;2022-10-17T01:28:00;2.40;;;1.60;;
50213;SDS011;36103;54.176;12.070;2022-10-17T01:29:17;2.30;;;1.57;;
50213;SDS011;36103;54.176;12.070;2022-10-17T01:30:50;2.43;;;1.60;;
50213;SDS011;36103;54.176;12.070;2022-10-17T01:31:58;1.60;;;1.50;;
50213;SDS011;36103;54.176;12.070;2022-10-17T01:33:02;1.90;;;1.50;;
50213;SDS011;36103;54.176;12.070;2022-10-17T01:34:08;1.77;;;1.50;;
50213;SDS011;36103;54.176;12.070;2022-10-17T01:35:14;1.83;;;1.50;;
50213;SDS011;36103;54.176;12.070;2022-10-17T01:36:25;2.90;;;1.73;;
50213;SDS011;36103;54.176;12.070;2022-10-17T01:37:35;1.80;;;1.57;;
50213;SDS011;36103;54.176;12.070;2022-10-17T01:38:43;2.23;;;1.73;;
50213;SDS011;36103;54.176;12.070;2022-10-17T01:39:47;3.17;;;1.63;;
50213;SDS011;36103;54.176;12.070;2022-10-17T01:40:52;2.50;;;1.57;;
50213;SDS011;36103;54.176;12.070;2022-10-17T01:44:19;2.40;;;1.50;;
50213;SDS011;36103;54.176;12.070;2022-10-17T01:45:24;2.07;;;1.50;;
50213;SDS011;36103;54.176;12.070;2022-10-17T01:46:29;2.20;;;1.60;;
50213;SDS011;36103;54.176;12.070;2022-10-17T01:47:33;4.50;;;1.40;;
50213;SDS011;36103;54.176;12.070;2022-10-17T01:48:36;2.13;;;1.60;;
50213;SDS011;36103;54.176;12.070;2022-10-17T01:49:38;2.83;;;1.60;;
50213;SDS011;36103;54.176;12.070;2022-10-17T01:50:40;2.30;;;1.70;;
50213;SDS011;36103;54.176;12.070;2022-10-17T01:51:45;3.00;;;1.90;;
50213;SDS011;36103;54.176;12.070;2022-10-17T01:52:49;1.67;;;1.37;;
50213;SDS011;36103;54.176;12.070;2022-10-17T01:53:53;2.80;;;1.50;;
50213;SDS011;36103;54.176;12.070;2022-10-17T01:55:00;2.07;;;1.63;;
50213;SDS011;36103;54.176;12.070;2022-10-17T01:56:05;2.07;;;1.63;;
50213;SDS011;36103;54.176;12.070;2022-10-17T01:57:08;1.93;;;1.40;;
50213;SDS011;36103;54.176;12.070;2022-10-17T01:58:11;2.20;;;1.57;;
50213;SDS011;36103;54.176;12.070;2022-10-17T01:59:15;2.83;;;1.43;;
50213;SDS011;36103;54.176;12.070;2022-10-17T02:00:19;2.07;;;1.40;;
50213;SDS011;36103;54.176;12.070;2022-10-17T02:01:24;2.03;;;1.43;;
50213;SDS011;36103;54.176;12.070;2022-10-17T02:02:28;1.73;;;1.63;;
50213;SDS011;36103;54.176;12.070;2022-10-17T02:03:29;2.10;;;1.47;;
50213;SDS011;36103;54.176;12.070;2022-10-17T02:04:33;1.87;;;1.40;;
50213;SDS011;36103;54.176;12.070;2022-10-17T02:05:35;3.17;;;1.60;;
50213;SDS011;36103;54.176;12.070;2022-10-17T02:06:38;2.03;;;1.43;;
50213;SDS011;36103;54.176;12.070;2022-10-17T02:07:43;1.50;;;1.30;;
50213;SDS011;36103;54.176;12.070;2022-10-17T02:08:45;2.03;;;1.40;;
50213;SDS011;36103;54.176;12.070;2022-10-17T02:09:46;1.60;;;1.37;;
50213;SDS011;36103;54.176;12.070;2022-10-17T02:10:51;1.97;;;1.33;;
50213;SDS011;36103;54.176;12.070;2022-10-17T02:12:02;1.60;;;1.47;;
50213;SDS011;36103;54.176;12.070;2022-10-17T02:13:12;3.87;;;1.57;;
50213;SDS011;36103;54.176;12.070;2022-10-17T02:14:21;1.97;;;1.50;;
50213;SDS011;36103;54.176;12.070;2022-10-17T02:16:47;2.83;;;1.80;;
50213;SDS011;36103;54.176;12.070;2022-10-17T02:17:54;1.97;;;1.60;;
50213;SDS011;36103;54.176;12.070;2022-10-17T02:19:02;2.87;;;1.80;;
50213;SDS011;36103;54.176;12.070;2022-10-17T02:20:09;2.00;;;1.30;;
50213;SDS011;36103;54.176;12.070;2022-10-17T02:21:18;2.90;;;1.67;;
50213;SDS011;36103;54.176;12.070;2022-10-17T02:22:24;2.00;;;1.50;;
50213;SDS011;36103;54.176;12.070;2022-10-17T02:23:33;1.63;;;1.40;;
50213;SDS011;36103;54.176;12.070;2022-10-17T02:24:38;1.97;;;1.37;;
50213;SDS011;36103;54.176;12.070;2022-10-17T02:25:49;2.33;;;1.50;;
50213;SDS011;36103;54.176;12.070;2022-10-17T02:26:55;2.40;;;1.50;;
50213;SDS011;36103;54.176;12.070;2022-10-17T02:28:04;1.30;;;1.20;;
50213;SDS011;36103;54.176;12.070;2022-10-17T02:29:12;2.30;;;1.30;;
50213;SDS011;36103;54.176;12.070;2022-10-17T02:30:19;2.00;;;1.40;;
50213;SDS011;36103;54.176;12.070;2022-10-17T02:31:24;2.10;;;1.20;;
50213;SDS011;36103;54.176;12.070;2022-10-17T02:32:27;2.30;;;1.60;;
50213;SDS011;36103;54.176;12.070;2022-10-17T02:33:38;2.07;;;1.40;;
50213;SDS011;36103;54.176;12.070;2022-10-17T02:34:41;1.77;;;1.50;;
50213;SDS011;36103;54.176;12.070;2022-10-17T02:35:45;2.57;;;1.50;;
50213;SDS011;36103;54.176;12.070;2022-10-17T02:36:48;1.93;;;1.30;;
50213;SDS011;36103;54.176;12.070;2022-10-17T02:37:52;1.83;;;1.40;;
50213;SDS011;36103;54.176;12.070;2022-10-17T02:38:54;1.73;;;1.40;;
50213;SDS011;36103;54.176;12.070;2022-10-17T02:39:56;1.80;;;1.47;;
50213;SDS011;36103;54.176;12.070;2022-10-17T02:40:58;1.70;;;1.40;;
50213;SDS011;36103;54.176;12.070;2022-10-17T02:42:01;1.50;;;1.20;;
50213;SDS011;36103;54.176;12.070;2022-10-17T02:43:03;1.70;;;1.20;;
50213;SDS011;36103;54.176;12.070;2022-10-17T02:44:05;2.37;;;1.63;;
50213;SDS011;36103;54.176;12.070;2022-10-17T02:45:06;1.73;;;1.60;;
50213;SDS011;36103;54.176;12.070;2022-10-17T02:46:10;1.83;;;1.40;;
50213;SDS011;36103;54.176;12.070;2022-10-17T02:47:12;1.80;;;1.30;;
50213;SDS011;36103;54.176;12.070;2022-10-17T02:48:18;1.80;;;1.33;;
50213;SDS011;36103;54.176;12.070;2022-10-17T02:49:23;1.27;;;1.10;;
50213;SDS011;36103;54.176;12.070;2022-10-17T02:50:29;1.30;;;1.20;;
50213;SDS011;36103;54.176;12.070;2022-10-17T02:51:35;2.00;;;1.27;;
50213;SDS011;36103;54.176;12.070;2022-10-17T02:52:44;2.30;;;1.33;;
50213;SDS011;36103;54.176;12.070;2022-10-17T02:53:49;1.87;;;1.30;;
50213;SDS011;36103;54.176;12.070;2022-10-17T02:54:56;1.83;;;1.40;;
50213;SDS011;36103;54.176;12.070;2022-10-17T02:55:59;2.13;;;1.20;;
50213;SDS011;36103;54.176;12.070;2022-10-17T02:57:05;1.83;;;1.30;;
50213;SDS011;36103;54.176;12.070;2022-10-17T02:58:09;3.47;;;1.43;;
50213;SDS011;36103;54.176;12.070;2022-10-17T02:59:13;3.03;;;1.40;;
50213;SDS011;36103;54.176;12.070;2022-10-17T03:00:15;1.90;;;1.33;;
50213;SDS011;36103;54.176;12.070;2022-10-17T03:01:20;1.73;;;1.30;;
50213;SDS011;36103;54.176;12.070;2022-10-17T03:02:21;1.57;;;1.20;;
50213;SDS011;36103;54.176;12.070;2022-10-17T03:03:23;2.00;;;1.40;;
50213;SDS011;36103;54.176;12.070;2022-10-17T03:04:26;2.10;;;1.23;;
50213;SDS011;36103;54.176;12.070;2022-10-17T03:05:28;2.50;;;1.53;;
50213;SDS011;36103;54.176;12.070;2022-10-17T03:06:28;1.73;;;1.27;;
50213;SDS011;36103;54.176;12.070;2022-10-17T03:07:30;2.50;;;1.50;;
50213;SDS011;36103;54.176;12.070;2022-10-17T03:08:30;2.37;;;1.40;;
50213;SDS011;36103;54.176;12.070;2022-10-17T03:09:33;3.40;;;1.50;;
50213;SDS011;36103;54.176;12.070;2022-10-17T03:10:34;2.37;;;1.20;;
50213;SDS011;36103;54.176;12.070;2022-10-17T03:11:35;2.20;;;1.50;;
50213;SDS011;36103;54.176;12.070;2022-10-17T03:12:35;1.90;;;1.50;;
50213;SDS011;36103;54.176;12.070;2022-10-17T03:13:37;1.93;;;1.40;;
50213;SDS011;36103;54.176;12.070;2022-10-17T03:14:38;1.63;;;1.20;;
50213;SDS011;36103;54.176;12.070;2022-10-17T03:15:40;2.10;;;1.33;;
50213;SDS011;36103;54.176;12.070;2022-10-17T03:16:40;1.87;;;1.50;;
50213;SDS011;36103;54.176;12.070;2022-10-17T03:17:42;2.43;;;1.20;;
50213;SDS011;36103;54.176;12.070;2022-10-17T03:18:43;1.60;;;1.27;;
50213;SDS011;36103;54.176;12.070;2022-10-17T03:19:45;2.77;;;1.40;;
50213;SDS011;36103;54.176;12.070;2022-10-17T03:20:46;1.70;;;1.30;;
50213;SDS011;36103;54.176;12.070;2022-10-17T03:21:47;1.67;;;1.13;;
50213;SDS011;36103;54.176;12.070;2022-10-17T03:22:48;2.47;;;1.47;;
50213;SDS011;36103;54.176;12.070;2022-10-17T03:23:49;1.70;;;1.30;;
50213;SDS011;36103;54.176;12.070;2022-10-17T03:24:52;1.50;;;1.40;;
50213;SDS011;36103;54.176;12.070;2022-10-17T03:25:53;2.03;;;1.10;;
50213;SDS011;36103;54.176;12.070;2022-10-17T03:26:54;1.30;;;1.10;;
50213;SDS011;36103;54.176;12.070;2022-10-17T03:27:56;1.37;;;1.20;;
50213;SDS011;36103;54.176;12.070;2022-10-17T03:28:57;4.03;;;1.33;;
50213;SDS011;36103;54.176;12.070;2022-10-17T03:30:00;2.37;;;1.20;;
50213;SDS011;36103;54.176;12.070;2022-10-17T03:31:05;1.13;;;1.00;;
50213;SDS011;36103;54.176;12.070;2022-10-17T03:32:07;1.53;;;1.40;;
50213;SDS011;36103;54.176;12.070;2022-10-17T03:33:08;1.37;;;1.27;;
50213;SDS011;36103;54.176;12.070;2022-10-17T03:34:10;1.83;;;1.30;;
50213;SDS011;36103;54.176;12.070;2022-10-17T03:35:13;2.30;;;1.50;;
50213;SDS011;36103;54.176;12.070;2022-10-17T03:36:15;4.73;;;1.47;;
50213;SDS011;36103;54.176;12.070;2022-10-17T03:37:18;1.07;;;0.90;;
50213;SDS011;36103;54.176;12.070;2022-10-17T03:38:19;1.90;;;1.40;;
50213;SDS011;36103;54.176;12.070;2022-10-17T03:39:21;1.77;;;1.20;;
50213;SDS011;36103;54.176;12.070;2022-10-17T03:40:22;1.50;;;1.20;;
50213;SDS011;36103;54.176;12.070;2022-10-17T03:41:23;1.60;;;1.30;;
50213;SDS011;36103;54.176;12.070;2022-10-17T03:42:24;2.77;;;1.40;;
50213;SDS011;36103;54.176;12.070;2022-10-17T03:43:25;1.20;;;1.10;;
50213;SDS011;36103;54.176;12.070;2022-10-17T03:44:25;2.93;;;1.40;;
50213;SDS011;36103;54.176;12.070;2022-10-17T03:45:27;1.43;;;1.20;;
50213;SDS011;36103;54.176;12.070;2022-10-17T03:46:28;1.77;;;1.47;;
50213;SDS011;36103;54.176;12.070;2022-10-17T03:47:32;1.63;;;1.33;;
50213;SDS011;36103;54.176;12.070;2022-10-17T03:48:32;1.13;;;1.00;;
50213;SDS011;36103;54.176;12.070;2022-10-17T03:49:34;1.23;;;0.90;;
50213;SDS011;36103;54.176;12.070;2022-10-17T03:50:36;2.30;;;1.20;;
50213;SDS011;36103;54.176;12.070;2022-10-17T03:51:38;1.53;;;1.20;;
50213;SDS011;36103;54.176;12.070;2022-10-17T03:52:45;1.53;;;1.20;;
50213;SDS011;36103;54.176;12.070;2022-10-17T03:53:47;1.23;;;1.13;;
50213;SDS011;36103;54.176;12.070;2022-10-17T03:54:48;2.23;;;1.47;;
50213;SDS011;36103;54.176;12.070;2022-10-17T03:55:49;1.87;;;1.40;;
50213;SDS011;36103;54.176;12.070;2022-10-17T03:56:51;1.10;;;1.00;;
50213;SDS011;36103;54.176;12.070;2022-10-17T03:57:53;1.50;;;1.40;;
50213;SDS011;36103;54.176;12.070;2022-10-17T03:58:55;2.23;;;1.27;;
50213;SDS011;36103;54.176;12.070;2022-10-17T03:59:57;1.73;;;1.20;;
50213;SDS011;36103;54.176;12.070;2022-10-17T04:01:02;1.67;;;1.30;;
50213;SDS011;36103;54.176;12.070;2022-10-17T04:02:04;1.53;;;1.10;;
50213;SDS011;36103;54.176;12.070;2022-10-17T04:03:04;1.43;;;1.20;;
50213;SDS011;36103;54.176;12.070;2022-10-17T04:04:05;3.20;;;1.37;;
50213;SDS011;36103;54.176;12.070;2022-10-17T04:05:08;1.67;;;1.20;;
50213;SDS011;36103;54.176;12.070;2022-10-17T04:06:11;1.77;;;1.10;;
50213;SDS011;36103;54.176;12.070;2022-10-17T04:07:12;2.97;;;1.17;;
50213;SDS011;36103;54.176;12.070;2022-10-17T04:08:17;1.20;;;1.00;;
50213;SDS011;36103;54.176;12.070;2022-10-17T04:09:36;1.47;;;1.20;;
50213;SDS011;36103;54.176;12.070;2022-10-17T04:10:44;2.57;;;1.53;;
50213;SDS011;36103;54.176;12.070;2022-10-17T04:11:45;1.30;;;1.00;;
50213;SDS011;36103;54.176;12.070;2022-10-17T04:12:46;1.47;;;0.97;;
50213;SDS011;36103;54.176;12.070;2022-10-17T04:13:47;1.80;;;1.30;;
50213;SDS011;36103;54.176;12.070;2022-10-17T04:14:53;1.10;;;1.00;;
50213;SDS011;36103;54.176;12.070;2022-10-17T04:15:54;1.50;;;1.13;;
50213;SDS011;36103;54.176;12.070;2022-10-17T04:16:56;1.77;;;1.10;;
50213;SDS011;36103;54.176;12.070;2022-10-17T04:17:57;1.70;;;1.17;;
50213;SDS011;36103;54.176;12.070;2022-10-17T04:18:58;2.17;;;1.17;;
50213;SDS011;36103;54.176;12.070;2022-10-17T04:20:02;1.13;;;0.93;;
50213;SDS011;36103;54.176;12.070;2022-10-17T04:21:04;1.80;;;1.20;;
50213;SDS011;36103;54.176;12.070;2022-10-17T04:22:07;1.17;;;1.07;;
50213;SDS011;36103;54.176;12.070;2022-10-17T04:23:10;1.30;;;1.20;;
50213;SDS011;36103;54.176;12.070;2022-10-17T04:24:12;1.40;;;1.00;;
50213;SDS011;36103;54.176;12.070;2022-10-17T04:25:24;1.63;;;1.23;;
50213;SDS011;36103;54.176;12.070;2022-10-17T04:26:26;1.47;;;1.20;;
50213;SDS011;36103;54.176;12.070;2022-10-17T04:27:27;3.43;;;1.47;;
50213;SDS011;36103;54.176;12.070;2022-10-17T04:28:29;1.47;;;1.10;;
50213;SDS011;36103;54.176;12.070;2022-10-17T04:29:30;1.43;;;1.20;;
50213;SDS011;36103;54.176;12.070;2022-10-17T04:30:40;1.00;;;0.90;;
50213;SDS011;36103;54.176;12.070;2022-10-17T04:31:41;1.30;;;0.90;;
50213;SDS011;36103;54.176;12.070;2022-10-17T04:32:53;1.20;;;0.97;;
50213;SDS011;36103;54.176;12.070;2022-10-17T04:33:55;1.43;;;1.20;;
50213;SDS011;36103;54.176;12.070;2022-10-17T04:34:56;3.80;;;1.33;;
50213;SDS011;36103;54.176;12.070;2022-10-17T04:35:57;2.43;;;1.30;;
50213;SDS011;36103;54.176;12.070;2022-10-17T04:36:59;1.50;;;1.23;;
50213;SDS011;36103;54.176;12.070;2022-10-17T04:38:02;1.90;;;1.10;;
50213;SDS011;36103;54.176;12.070;2022-10-17T04:39:04;1.30;;;1.20;;
50213;SDS011;36103;54.176;12.070;2022-10-17T04:40:05;1.00;;;0.83;;
50213;SDS011;36103;54.176;12.070;2022-10-17T04:41:10;1.43;;;0.93;;
50213;SDS011;36103;54.176;12.070;2022-10-17T04:42:12;1.10;;;0.80;;
50213;SDS011;36103;54.176;12.070;2022-10-17T04:43:14;1.37;;;1.17;;
50213;SDS011;36103;54.176;12.070;2022-10-17T04:44:14;1.60;;;1.10;;
50213;SDS011;36103;54.176;12.070;2022-10-17T04:45:21;1.33;;;1.10;;
50213;SDS011;36103;54.176;12.070;2022-10-17T04:46:26;1.93;;;1.10;;
50213;SDS011;36103;54.176;12.070;2022-10-17T04:47:27;1.10;;;1.00;;
50213;SDS011;36103;54.176;12.070;2022-10-17T04:48:29;1.80;;;1.20;;
50213;SDS011;36103;54.176;12.070;2022-10-17T04:49:30;1.33;;;1.10;;
50213;SDS011;36103;54.176;12.070;2022-10-17T04:50:39;2.00;;;1.00;;
50213;SDS011;36103;54.176;12.070;2022-10-17T04:52:04;1.40;;;1.00;;
50213;SDS011;36103;54.176;12.070;2022-10-17T04:53:12;1.27;;;1.17;;
50213;SDS011;36103;54.176;12.070;2022-10-17T04:54:14;1.40;;;1.07;;
50213;SDS011;36103;54.176;12.070;2022-10-17T04:55:17;1.00;;;0.90;;
50213;SDS011;36103;54.176;12.070;2022-10-17T04:56:18;1.37;;;1.10;;
50213;SDS011;36103;54.176;12.070;2022-10-17T04:57:21;1.63;;;1.20;;
50213;SDS011;36103;54.176;12.070;2022-10-17T04:58:32;1.70;;;1.23;;
50213;SDS011;36103;54.176;12.070;2022-10-17T04:59:33;1.00;;;0.90;;
50213;SDS011;36103;54.176;12.070;2022-10-17T05:01:07;1.73;;;1.20;;
50213;SDS011;36103;54.176;12.070;2022-10-17T05:02:10;2.73;;;1.47;;
50213;SDS011;36103;54.176;12.070;2022-10-17T05:03:12;2.27;;;1.20;;
50213;SDS011;36103;54.176;12.070;2022-10-17T05:04:13;1.20;;;1.07;;
50213;SDS011;36103;54.176;12.070;2022-10-17T05:05:14;1.80;;;1.10;;
50213;SDS011;36103;54.176;12.070;2022-10-17T05:06:17;1.30;;;1.10;;
50213;SDS011;36103;54.176;12.070;2022-10-17T05:07:26;1.90;;;1.50;;
50213;SDS011;36103;54.176;12.070;2022-10-17T05:08:34;1.20;;;0.93;;
50213;SDS011;36103;54.176;12.070;2022-10-17T05:09:36;1.47;;;0.93;;
50213;SDS011;36103;54.176;12.070;2022-10-17T05:10:37;1.47;;;1.00;;
50213;SDS011;36103;54.176;12.070;2022-10-17T05:11:39;1.20;;;1.10;;
50213;SDS011;36103;54.176;12.070;2022-10-17T05:12:41;1.30;;;0.97;;
50213;SDS011;36103;54.176;12.070;2022-10-17T05:13:43;1.63;;;1.10;;
50213;SDS011;36103;54.176;12.070;2022-10-17T05:14:44;1.00;;;0.90;;
50213;SDS011;36103;54.176;12.070;2022-10-17T05:15:45;1.20;;;0.90;;
50213;SDS011;36103;54.176;12.070;2022-10-17T05:16:46;1.00;;;0.90;;
50213;SDS011;36103;54.176;12.070;2022-10-17T05:17:47;1.20;;;0.90;;
50213;SDS011;36103;54.176;12.070;2022-10-17T05:18:48;1.40;;;1.00;;
50213;SDS011;36103;54.176;12.070;2022-10-17T05:19:50;1.13;;;1.03;;
50213;SDS011;36103;54.176;12.070;2022-10-17T05:20:51;4.70;;;1.30;;
50213;SDS011;36103;54.176;12.070;2022-10-17T05:21:52;2.07;;;1.00;;
50213;SDS011;36103;54.176;12.070;2022-10-17T05:22:53;0.90;;;0.90;;
50213;SDS011;36103;54.176;12.070;2022-10-17T05:23:56;1.57;;;1.13;;
50213;SDS011;36103;54.176;12.070;2022-10-17T05:24:57;3.83;;;1.30;;
50213;SDS011;36103;54.176;12.070;2022-10-17T05:25:58;2.67;;;1.20;;
50213;SDS011;36103;54.176;12.070;2022-10-17T05:27:00;2.10;;;1.33;;
50213;SDS011;36103;54.176;12.070;2022-10-17T05:28:00;2.63;;;1.23;;
50213;SDS011;36103;54.176;12.070;2022-10-17T05:29:02;3.37;;;1.30;;
50213;SDS011;36103;54.176;12.070;2022-10-17T05:30:06;2.33;;;1.13;;
50213;SDS011;36103;54.176;12.070;2022-10-17T05:31:09;3.33;;;1.10;;
50213;SDS011;36103;54.176;12.070;2022-10-17T05:32:10;4.07;;;1.30;;
50213;SDS011;36103;54.176;12.070;2022-10-17T05:33:12;6.90;;;1.93;;
50213;SDS011;36103;54.176;12.070;2022-10-17T05:34:13;3.90;;;1.30;;
50213;SDS011;36103;54.176;12.070;2022-10-17T05:35:15;2.47;;;1.13;;
50213;SDS011;36103;54.176;12.070;2022-10-17T05:36:16;4.20;;;1.20;;
50213;SDS011;36103;54.176;12.070;2022-10-17T05:37:17;3.20;;;1.40;;
50213;SDS011;36103;54.176;12.070;2022-10-17T05:38:23;4.73;;;1.30;;
50213;SDS011;36103;54.176;12.070;2022-10-17T05:39:26;3.70;;;1.50;;
50213;SDS011;36103;54.176;12.070;2022-10-17T05:40:26;3.17;;;1.20;;
50213;SDS011;36103;54.176;12.070;2022-10-17T05:41:28;4.00;;;1.10;;
50213;SDS011;36103;54.176;12.070;2022-10-17T05:42:28;1.97;;;0.97;;
50213;SDS011;36103;54.176;12.070;2022-10-17T05:43:32;5.27;;;1.60;;
50213;SDS011;36103;54.176;12.070;2022-10-17T05:44:33;3.67;;;1.40;;
50213;SDS011;36103;54.176;12.070;2022-10-17T05:45:34;2.63;;;1.33;;
50213;SDS011;36103;54.176;12.070;2022-10-17T05:46:35;4.53;;;1.20;;
50213;SDS011;36103;54.176;12.070;2022-10-17T05:47:36;2.53;;;1.20;;
50213;SDS011;36103;54.176;12.070;2022-10-17T05:48:37;2.87;;;1.07;;
50213;SDS011;36103;54.176;12.070;2022-10-17T05:49:39;2.97;;;1.73;;
50213;SDS011;36103;54.176;12.070;2022-10-17T05:50:39;3.53;;;1.50;;
50213;SDS011;36103;54.176;12.070;2022-10-17T05:51:48;3.50;;;1.50;;
50213;SDS011;36103;54.176;12.070;2022-10-17T05:52:51;4.23;;;1.30;;
50213;SDS011;36103;54.176;12.070;2022-10-17T05:53:53;3.63;;;1.50;;
50213;SDS011;36103;54.176;12.070;2022-10-17T05:54:59;4.73;;;1.93;;
50213;SDS011;36103;54.176;12.070;2022-10-17T05:56:01;6.33;;;1.80;;
50213;SDS011;36103;54.176;12.070;2022-10-17T05:57:05;1.47;;;1.27;;
50213;SDS011;36103;54.176;12.070;2022-10-17T05:58:06;2.40;;;1.33;;
50213;SDS011;36103;54.176;12.070;2022-10-17T05:59:12;2.97;;;1.30;;
50213;SDS011;36103;54.176;12.070;2022-10-17T06:00:41;2.23;;;1.07;;
50213;SDS011;36103;54.176;12.070;2022-10-17T06:01:44;3.93;;;1.60;;
50213;SDS011;36103;54.176;12.070;2022-10-17T06:02:44;1.83;;;1.20;;
50213;SDS011;36103;54.176;12.070;2022-10-17T06:03:47;4.10;;;1.70;;
50213;SDS011;36103;54.176;12.070;2022-10-17T06:04:48;3.13;;;1.43;;
50213;SDS011;36103;54.176;12.070;2022-10-17T06:05:50;5.93;;;1.63;;
50213;SDS011;36103;54.176;12.070;2022-10-17T06:06:52;7.07;;;1.37;;
50213;SDS011;36103;54.176;12.070;2022-10-17T06:07:53;7.83;;;1.53;;
50213;SDS011;36103;54.176;12.070;2022-10-17T06:08:56;4.33;;;1.53;;
50213;SDS011;36103;54.176;12.070;2022-10-17T06:10:03;2.80;;;1.60;;
50213;SDS011;36103;54.176;12.070;2022-10-17T06:11:05;2.97;;;1.30;;
50213;SDS011;36103;54.176;12.070;2022-10-17T06:12:06;10.27;;;1.73;;
50213;SDS011;36103;54.176;12.070;2022-10-17T06:13:09;6.60;;;1.90;;
50213;SDS011;36103;54.176;12.070;2022-10-17T06:14:09;4.90;;;1.73;;
50213;SDS011;36103;54.176;12.070;2022-10-17T06:15:12;5.23;;;2.17;;
50213;SDS011;36103;54.176;12.070;2022-10-17T06:16:16;4.50;;;1.77;;
50213;SDS011;36103;54.176;12.070;2022-10-17T06:17:18;5.20;;;1.60;;
50213;SDS011;36103;54.176;12.070;2022-10-17T06:18:19;5.37;;;2.00;;
50213;SDS011;36103;54.176;12.070;2022-10-17T06:19:20;4.93;;;1.60;;
50213;SDS011;36103;54.176;12.070;2022-10-17T06:20:22;4.17;;;1.50;;
50213;SDS011;36103;54.176;12.070;2022-10-17T06:21:24;8.53;;;1.93;;